sensor_id;sensor_type;location;lat;lon;timestamp;temperature;humidity
5136;DHT22;2586;48.710;9.202;2022-10-18T00:00:30;13.10;1.00
5136;DHT22;2586;48.710;9.202;2022-10-18T00:02:55;13.10;1.00
5136;DHT22;2586;48.710;9.202;2022-10-18T00:05:21;13.00;1.00
5136;DHT22;2586;48.710;9.202;2022-10-18T00:07:46;12.90;1.00
5136;DHT22;2586;48.710;9.202;2022-10-18T00:10:12;12.80;1.00
5136;DHT22;2586;48.710;9.202;2022-10-18T00:12:38;12.70;52.80
5136;DHT22;2586;48.710;9.202;2022-10-18T00:15:05;12.70;76.60
5136;DHT22;2586;48.710;9.202;2022-10-18T00:17:31;12.50;91.30
5136;DHT22;2586;48.710;9.202;2022-10-18T00:19:58;12.40;99.90
5136;DHT22;2586;48.710;9.202;2022-10-18T00:22:24;12.40;99.90
5136;DHT22;2586;48.710;9.202;2022-10-18T00:24:50;12.40;99.90
5136;DHT22;2586;48.710;9.202;2022-10-18T00:27:15;12.40;99.90
5136;DHT22;2586;48.710;9.202;2022-10-18T00:29:41;12.50;99.90
5136;DHT22;2586;48.710;9.202;2022-10-18T00:32:06;12.60;99.90
5136;DHT22;2586;48.710;9.202;2022-10-18T00:34:32;12.60;99.90
5136;DHT22;2586;48.710;9.202;2022-10-18T00:36:57;12.60;99.90
5136;DHT22;2586;48.710;9.202;2022-10-18T00:39:23;12.60;99.90
5136;DHT22;2586;48.710;9.202;2022-10-18T00:41:49;12.50;99.90
5136;DHT22;2586;48.710;9.202;2022-10-18T00:46:45;12.60;99.90
5136;DHT22;2586;48.710;9.202;2022-10-18T00:49:19;12.60;99.90
5136;DHT22;2586;48.710;9.202;2022-10-18T00:51:49;12.60;99.90
5136;DHT22;2586;48.710;9.202;2022-10-18T00:54:16;12.60;99.90
5136;DHT22;2586;48.710;9.202;2022-10-18T00:56:43;12.70;99.90
5136;DHT22;2586;48.710;9.202;2022-10-18T00:59:10;12.70;99.90
5136;DHT22;2586;48.710;9.202;2022-10-18T01:01:36;12.80;99.90
5136;DHT22;2586;48.710;9.202;2022-10-18T01:04:02;12.80;99.90
5136;DHT22;2586;48.710;9.202;2022-10-18T01:06:28;12.80;99.90
5136;DHT22;2586;48.710;9.202;2022-10-18T01:08:58;12.90;99.90
5136;DHT22;2586;48.710;9.202;2022-10-18T01:11:51;12.90;99.90
5136;DHT22;2586;48.710;9.202;2022-10-18T01:17:23;13.00;99.90
5136;DHT22;2586;48.710;9.202;2022-10-18T01:26:01;13.20;99.90
5136;DHT22;2586;48.710;9.202;2022-10-18T01:31:38;13.10;99.90
5136;DHT22;2586;48.710;9.202;2022-10-18T01:34:06;13.10;99.90
5136;DHT22;2586;48.710;9.202;2022-10-18T01:36:38;13.10;86.00
5136;DHT22;2586;48.710;9.202;2022-10-18T01:39:13;13.10;56.50
5136;DHT22;2586;48.710;9.202;2022-10-18T01:41:40;13.10;21.90
5136;DHT22;2586;48.710;9.202;2022-10-18T01:44:11;13.10;47.10
5136;DHT22;2586;48.710;9.202;2022-10-18T01:46:39;13.10;1.00
5136;DHT22;2586;48.710;9.202;2022-10-18T01:49:06;13.00;6.50
5136;DHT22;2586;48.710;9.202;2022-10-18T01:51:32;13.10;44.10
5136;DHT22;2586;48.710;9.202;2022-10-18T01:53:58;13.10;51.20
5136;DHT22;2586;48.710;9.202;2022-10-18T02:04:53;13.10;56.30
5136;DHT22;2586;48.710;9.202;2022-10-18T02:07:34;13.10;74.60
5136;DHT22;2586;48.710;9.202;2022-10-18T02:10:14;13.10;34.50
5136;DHT22;2586;48.710;9.202;2022-10-18T02:12:43;13.10;1.00
5136;DHT22;2586;48.710;9.202;2022-10-18T02:15:13;13.10;1.00
5136;DHT22;2586;48.710;9.202;2022-10-18T02:17:39;13.00;1.00
5136;DHT22;2586;48.710;9.202;2022-10-18T02:20:08;12.80;39.30
5136;DHT22;2586;48.710;9.202;2022-10-18T02:22:34;12.80;99.90
5136;DHT22;2586;48.710;9.202;2022-10-18T02:25:05;12.80;99.90
5136;DHT22;2586;48.710;9.202;2022-10-18T02:27:31;12.80;99.90
5136;DHT22;2586;48.710;9.202;2022-10-18T02:29:57;12.90;99.90
5136;DHT22;2586;48.710;9.202;2022-10-18T02:32:52;12.90;99.90
5136;DHT22;2586;48.710;9.202;2022-10-18T02:35:38;13.00;99.90
5136;DHT22;2586;48.710;9.202;2022-10-18T02:38:06;13.10;99.90
5136;DHT22;2586;48.710;9.202;2022-10-18T02:40:33;13.10;99.90
5136;DHT22;2586;48.710;9.202;2022-10-18T02:42:58;13.10;99.90
5136;DHT22;2586;48.710;9.202;2022-10-18T02:45:25;13.10;99.90
5136;DHT22;2586;48.710;9.202;2022-10-18T02:47:51;13.10;99.90
5136;DHT22;2586;48.710;9.202;2022-10-18T02:50:17;13.10;99.90
5136;DHT22;2586;48.710;9.202;2022-10-18T02:52:43;13.10;99.90
5136;DHT22;2586;48.710;9.202;2022-10-18T02:55:09;13.10;99.90
5136;DHT22;2586;48.710;9.202;2022-10-18T02:57:35;13.20;99.90
5136;DHT22;2586;48.710;9.202;2022-10-18T03:00:01;13.20;99.90
5136;DHT22;2586;48.710;9.202;2022-10-18T03:02:26;13.20;99.90
5136;DHT22;2586;48.710;9.202;2022-10-18T03:04:52;13.20;81.50
5136;DHT22;2586;48.710;9.202;2022-10-18T03:07:17;13.20;99.90
5136;DHT22;2586;48.710;9.202;2022-10-18T03:09:43;13.30;99.90
5136;DHT22;2586;48.710;9.202;2022-10-18T03:12:09;13.30;99.90
5136;DHT22;2586;48.710;9.202;2022-10-18T03:14:35;13.30;99.90
5136;DHT22;2586;48.710;9.202;2022-10-18T03:17:00;13.20;96.30
5136;DHT22;2586;48.710;9.202;2022-10-18T03:19:26;13.30;83.20
5136;DHT22;2586;48.710;9.202;2022-10-18T03:21:51;13.30;66.40
5136;DHT22;2586;48.710;9.202;2022-10-18T03:24:17;13.30;33.20
5136;DHT22;2586;48.710;9.202;2022-10-18T03:26:43;13.30;71.70
5136;DHT22;2586;48.710;9.202;2022-10-18T03:29:09;13.30;99.90
5136;DHT22;2586;48.710;9.202;2022-10-18T03:31:35;13.30;93.60
5136;DHT22;2586;48.710;9.202;2022-10-18T03:34:00;13.30;99.90
5136;DHT22;2586;48.710;9.202;2022-10-18T03:36:26;13.40;96.60
5136;DHT22;2586;48.710;9.202;2022-10-18T03:38:52;13.30;99.90
5136;DHT22;2586;48.710;9.202;2022-10-18T03:41:17;13.30;99.90
5136;DHT22;2586;48.710;9.202;2022-10-18T03:43:44;13.20;71.00
5136;DHT22;2586;48.710;9.202;2022-10-18T03:46:09;13.20;99.90
5136;DHT22;2586;48.710;9.202;2022-10-18T03:48:35;13.20;99.90
5136;DHT22;2586;48.710;9.202;2022-10-18T03:51:00;13.20;99.90
5136;DHT22;2586;48.710;9.202;2022-10-18T03:53:26;13.20;99.90
5136;DHT22;2586;48.710;9.202;2022-10-18T03:55:54;13.20;99.90
5136;DHT22;2586;48.710;9.202;2022-10-18T03:58:23;13.20;99.90
5136;DHT22;2586;48.710;9.202;2022-10-18T04:00:50;13.20;99.90
5136;DHT22;2586;48.710;9.202;2022-10-18T04:03:16;13.20;99.90
5136;DHT22;2586;48.710;9.202;2022-10-18T04:05:42;13.20;99.90
5136;DHT22;2586;48.710;9.202;2022-10-18T04:08:07;13.20;99.90
5136;DHT22;2586;48.710;9.202;2022-10-18T04:10:33;13.10;99.90
5136;DHT22;2586;48.710;9.202;2022-10-18T04:12:58;13.00;99.90
5136;DHT22;2586;48.710;9.202;2022-10-18T04:15:24;13.00;99.90
5136;DHT22;2586;48.710;9.202;2022-10-18T04:17:49;13.00;99.90
5136;DHT22;2586;48.710;9.202;2022-10-18T04:20:15;13.00;99.10
5136;DHT22;2586;48.710;9.202;2022-10-18T04:22:41;13.00;98.60
5136;DHT22;2586;48.710;9.202;2022-10-18T04:25:06;12.90;99.50
5136;DHT22;2586;48.710;9.202;2022-10-18T04:27:32;12.90;99.90
5136;DHT22;2586;48.710;9.202;2022-10-18T04:29:57;13.00;99.90
5136;DHT22;2586;48.710;9.202;2022-10-18T04:32:23;12.90;99.90
5136;DHT22;2586;48.710;9.202;2022-10-18T04:34:49;13.00;99.90
5136;DHT22;2586;48.710;9.202;2022-10-18T04:37:14;13.00;95.70
5136;DHT22;2586;48.710;9.202;2022-10-18T04:39:40;12.90;91.00
5136;DHT22;2586;48.710;9.202;2022-10-18T04:42:05;12.90;84.20
5136;DHT22;2586;48.710;9.202;2022-10-18T04:44:31;12.80;99.90
5136;DHT22;2586;48.710;9.202;2022-10-18T04:46:56;12.80;99.90
5136;DHT22;2586;48.710;9.202;2022-10-18T04:49:22;12.80;99.90
5136;DHT22;2586;48.710;9.202;2022-10-18T04:51:47;12.70;99.90
5136;DHT22;2586;48.710;9.202;2022-10-18T04:54:13;12.70;99.90
5136;DHT22;2586;48.710;9.202;2022-10-18T04:56:39;12.70;99.90
5136;DHT22;2586;48.710;9.202;2022-10-18T04:59:04;12.70;99.90
5136;DHT22;2586;48.710;9.202;2022-10-18T05:01:30;12.70;99.90
5136;DHT22;2586;48.710;9.202;2022-10-18T05:03:55;12.70;99.90
5136;DHT22;2586;48.710;9.202;2022-10-18T05:06:21;12.70;99.90
5136;DHT22;2586;48.710;9.202;2022-10-18T05:08:47;12.70;99.90
5136;DHT22;2586;48.710;9.202;2022-10-18T05:11:13;12.60;99.90
5136;DHT22;2586;48.710;9.202;2022-10-18T05:13:38;12.60;99.90
5136;DHT22;2586;48.710;9.202;2022-10-18T05:16:04;12.60;99.90
5136;DHT22;2586;48.710;9.202;2022-10-18T05:18:30;12.50;99.90
5136;DHT22;2586;48.710;9.202;2022-10-18T05:20:56;12.50;99.90
5136;DHT22;2586;48.710;9.202;2022-10-18T05:23:22;12.50;99.90
5136;DHT22;2586;48.710;9.202;2022-10-18T05:25:48;12.40;99.90
5136;DHT22;2586;48.710;9.202;2022-10-18T05:28:13;12.40;99.90
5136;DHT22;2586;48.710;9.202;2022-10-18T05:30:39;12.50;99.90
5136;DHT22;2586;48.710;9.202;2022-10-18T05:33:05;12.50;99.90
5136;DHT22;2586;48.710;9.202;2022-10-18T05:35:31;12.50;99.90
5136;DHT22;2586;48.710;9.202;2022-10-18T05:37:57;12.60;99.90
5136;DHT22;2586;48.710;9.202;2022-10-18T05:40:22;12.70;99.90
5136;DHT22;2586;48.710;9.202;2022-10-18T05:42:51;12.70;99.90
5136;DHT22;2586;48.710;9.202;2022-10-18T05:45:16;12.70;99.90
5136;DHT22;2586;48.710;9.202;2022-10-18T05:47:42;12.70;99.90
5136;DHT22;2586;48.710;9.202;2022-10-18T05:50:08;12.80;99.90
5136;DHT22;2586;48.710;9.202;2022-10-18T05:52:34;12.80;99.90
5136;DHT22;2586;48.710;9.202;2022-10-18T05:54:59;12.80;99.90
5136;DHT22;2586;48.710;9.202;2022-10-18T05:57:25;12.80;99.90
5136;DHT22;2586;48.710;9.202;2022-10-18T05:59:52;12.90;99.90
5136;DHT22;2586;48.710;9.202;2022-10-18T06:02:18;12.90;99.90
5136;DHT22;2586;48.710;9.202;2022-10-18T06:04:44;12.90;99.90
5136;DHT22;2586;48.710;9.202;2022-10-18T06:07:10;12.90;99.90
5136;DHT22;2586;48.710;9.202;2022-10-18T06:09:36;12.90;99.90
5136;DHT22;2586;48.710;9.202;2022-10-18T06:12:02;13.00;99.90
5136;DHT22;2586;48.710;9.202;2022-10-18T06:14:28;13.10;99.90
5136;DHT22;2586;48.710;9.202;2022-10-18T06:16:54;13.20;99.90
5136;DHT22;2586;48.710;9.202;2022-10-18T06:19:21;13.40;99.90
5136;DHT22;2586;48.710;9.202;2022-10-18T06:21:47;13.50;51.20
5136;DHT22;2586;48.710;9.202;2022-10-18T06:24:13;13.50;4.40
5136;DHT22;2586;48.710;9.202;2022-10-18T06:26:38;13.60;1.00
5136;DHT22;2586;48.710;9.202;2022-10-18T06:29:04;13.50;1.00
5136;DHT22;2586;48.710;9.202;2022-10-18T06:31:29;13.60;1.00
5136;DHT22;2586;48.710;9.202;2022-10-18T06:33:56;13.70;1.00
5136;DHT22;2586;48.710;9.202;2022-10-18T06:36:26;13.80;1.00
5136;DHT22;2586;48.710;9.202;2022-10-18T06:38:52;14.10;1.00
5136;DHT22;2586;48.710;9.202;2022-10-18T06:41:19;14.30;1.00
5136;DHT22;2586;48.710;9.202;2022-10-18T06:43:52;14.60;1.00
5136;DHT22;2586;48.710;9.202;2022-10-18T06:46:19;14.90;1.00
5136;DHT22;2586;48.710;9.202;2022-10-18T06:48:45;15.20;1.00
5136;DHT22;2586;48.710;9.202;2022-10-18T06:51:11;15.50;95.30
5136;DHT22;2586;48.710;9.202;2022-10-18T06:53:38;15.70;99.90
5136;DHT22;2586;48.710;9.202;2022-10-18T06:56:11;15.80;99.90
5136;DHT22;2586;48.710;9.202;2022-10-18T06:58:37;15.80;99.90
5136;DHT22;2586;48.710;9.202;2022-10-18T07:01:08;16.00;99.90
5136;DHT22;2586;48.710;9.202;2022-10-18T07:03:34;16.30;1.00
5136;DHT22;2586;48.710;9.202;2022-10-18T07:06:01;16.60;99.90
5136;DHT22;2586;48.710;9.202;2022-10-18T07:08:27;16.90;99.90
5136;DHT22;2586;48.710;9.202;2022-10-18T07:10:53;17.00;99.90
5136;DHT22;2586;48.710;9.202;2022-10-18T07:13:19;17.10;1.00
5136;DHT22;2586;48.710;9.202;2022-10-18T07:15:45;17.10;1.00
5136;DHT22;2586;48.710;9.202;2022-10-18T07:18:10;17.20;1.00
5136;DHT22;2586;48.710;9.202;2022-10-18T07:20:36;17.20;15.20
5136;DHT22;2586;48.710;9.202;2022-10-18T07:23:01;17.30;1.00
5136;DHT22;2586;48.710;9.202;2022-10-18T07:25:27;17.20;1.00
5136;DHT22;2586;48.710;9.202;2022-10-18T07:27:53;17.10;1.00
5136;DHT22;2586;48.710;9.202;2022-10-18T07:30:19;17.00;99.90
5136;DHT22;2586;48.710;9.202;2022-10-18T07:32:44;17.00;1.00
5136;DHT22;2586;48.710;9.202;2022-10-18T07:35:10;17.00;1.00
5136;DHT22;2586;48.710;9.202;2022-10-18T07:37:36;17.10;1.00
5136;DHT22;2586;48.710;9.202;2022-10-18T07:40:01;17.10;99.90
5136;DHT22;2586;48.710;9.202;2022-10-18T07:42:27;17.00;99.90
5136;DHT22;2586;48.710;9.202;2022-10-18T07:44:52;16.90;99.90
5136;DHT22;2586;48.710;9.202;2022-10-18T07:47:18;16.90;99.90
5136;DHT22;2586;48.710;9.202;2022-10-18T07:49:43;16.90;99.90
5136;DHT22;2586;48.710;9.202;2022-10-18T07:52:09;17.00;99.90
5136;DHT22;2586;48.710;9.202;2022-10-18T07:54:35;17.20;1.00
5136;DHT22;2586;48.710;9.202;2022-10-18T07:57:02;17.10;99.90
5136;DHT22;2586;48.710;9.202;2022-10-18T07:59:28;17.30;99.90
5136;DHT22;2586;48.710;9.202;2022-10-18T08:01:53;17.60;99.90
5136;DHT22;2586;48.710;9.202;2022-10-18T08:04:19;17.70;1.00
5136;DHT22;2586;48.710;9.202;2022-10-18T08:06:44;17.70;99.90
5136;DHT22;2586;48.710;9.202;2022-10-18T08:09:10;17.60;99.90
5136;DHT22;2586;48.710;9.202;2022-10-18T08:11:36;17.60;99.90
5136;DHT22;2586;48.710;9.202;2022-10-18T08:14:01;17.60;99.90
5136;DHT22;2586;48.710;9.202;2022-10-18T08:16:27;17.70;99.90
5136;DHT22;2586;48.710;9.202;2022-10-18T08:18:53;17.70;99.90
5136;DHT22;2586;48.710;9.202;2022-10-18T08:21:21;17.80;99.90
5136;DHT22;2586;48.710;9.202;2022-10-18T08:23:47;17.70;1.00
5136;DHT22;2586;48.710;9.202;2022-10-18T08:26:16;17.90;1.00
5136;DHT22;2586;48.710;9.202;2022-10-18T08:28:43;18.00;1.00
5136;DHT22;2586;48.710;9.202;2022-10-18T08:31:14;18.00;1.00
5136;DHT22;2586;48.710;9.202;2022-10-18T08:33:41;18.00;1.00
5136;DHT22;2586;48.710;9.202;2022-10-18T08:36:08;18.10;1.00
5136;DHT22;2586;48.710;9.202;2022-10-18T08:38:36;18.20;99.90
5136;DHT22;2586;48.710;9.202;2022-10-18T08:44:02;18.50;1.00
5136;DHT22;2586;48.710;9.202;2022-10-18T08:46:30;18.80;54.30
5136;DHT22;2586;48.710;9.202;2022-10-18T08:48:57;19.30;1.00
5136;DHT22;2586;48.710;9.202;2022-10-18T08:54:08;20.20;1.00
5136;DHT22;2586;48.710;9.202;2022-10-18T08:56:35;20.40;1.00
5136;DHT22;2586;48.710;9.202;2022-10-18T08:59:08;20.80;1.00
5136;DHT22;2586;48.710;9.202;2022-10-18T09:01:46;21.20;1.00
5136;DHT22;2586;48.710;9.202;2022-10-18T09:09:46;21.60;1.00
5136;DHT22;2586;48.710;9.202;2022-10-18T09:15:17;20.40;31.00
5136;DHT22;2586;48.710;9.202;2022-10-18T09:20:50;19.70;99.90
5136;DHT22;2586;48.710;9.202;2022-10-18T09:23:29;19.40;1.00
5136;DHT22;2586;48.710;9.202;2022-10-18T09:26:13;19.30;1.00
5136;DHT22;2586;48.710;9.202;2022-10-18T09:34:15;21.60;1.00
5136;DHT22;2586;48.710;9.202;2022-10-18T09:36:44;21.60;99.90
5136;DHT22;2586;48.710;9.202;2022-10-18T09:39:11;21.20;1.00
5136;DHT22;2586;48.710;9.202;2022-10-18T09:41:55;20.90;1.00
5136;DHT22;2586;48.710;9.202;2022-10-18T09:44:46;20.90;1.00
5136;DHT22;2586;48.710;9.202;2022-10-18T09:47:18;20.80;1.00
5136;DHT22;2586;48.710;9.202;2022-10-18T09:49:53;20.70;1.00
5136;DHT22;2586;48.710;9.202;2022-10-18T09:52:43;21.30;1.00
5136;DHT22;2586;48.710;9.202;2022-10-18T09:55:34;22.30;99.90
5136;DHT22;2586;48.710;9.202;2022-10-18T09:58:01;23.10;99.90
5136;DHT22;2586;48.710;9.202;2022-10-18T10:00:45;23.60;99.90
5136;DHT22;2586;48.710;9.202;2022-10-18T10:03:12;23.90;99.90
5136;DHT22;2586;48.710;9.202;2022-10-18T10:05:39;24.40;99.90
5136;DHT22;2586;48.710;9.202;2022-10-18T10:08:05;24.60;99.90
5136;DHT22;2586;48.710;9.202;2022-10-18T10:10:31;24.80;99.90
5136;DHT22;2586;48.710;9.202;2022-10-18T10:13:04;24.60;99.90
5136;DHT22;2586;48.710;9.202;2022-10-18T10:15:31;24.70;99.90
5136;DHT22;2586;48.710;9.202;2022-10-18T10:18:18;24.80;99.90
5136;DHT22;2586;48.710;9.202;2022-10-18T10:20:47;25.20;99.90
5136;DHT22;2586;48.710;9.202;2022-10-18T10:23:35;25.00;99.90
5136;DHT22;2586;48.710;9.202;2022-10-18T10:26:05;24.80;99.90
5136;DHT22;2586;48.710;9.202;2022-10-18T10:28:40;24.80;99.90
5136;DHT22;2586;48.710;9.202;2022-10-18T10:34:29;24.70;99.90
5136;DHT22;2586;48.710;9.202;2022-10-18T10:36:53;24.50;99.90
5136;DHT22;2586;48.710;9.202;2022-10-18T10:39:21;24.50;99.90
5136;DHT22;2586;48.710;9.202;2022-10-18T10:41:55;25.00;99.90
5136;DHT22;2586;48.710;9.202;2022-10-18T10:44:30;24.90;99.90
5136;DHT22;2586;48.710;9.202;2022-10-18T10:46:57;24.60;99.90
5136;DHT22;2586;48.710;9.202;2022-10-18T10:52:02;24.10;99.90
5136;DHT22;2586;48.710;9.202;2022-10-18T10:54:29;24.20;99.90
5136;DHT22;2586;48.710;9.202;2022-10-18T10:59:53;25.30;99.90
5136;DHT22;2586;48.710;9.202;2022-10-18T11:02:25;24.70;99.90
5136;DHT22;2586;48.710;9.202;2022-10-18T11:04:54;24.50;99.90
5136;DHT22;2586;48.710;9.202;2022-10-18T11:07:34;24.40;99.90
5136;DHT22;2586;48.710;9.202;2022-10-18T11:10:14;24.40;99.90
5136;DHT22;2586;48.710;9.202;2022-10-18T11:15:44;24.70;99.90
5136;DHT22;2586;48.710;9.202;2022-10-18T11:18:31;24.50;99.90
5136;DHT22;2586;48.710;9.202;2022-10-18T11:23:39;24.10;99.90
5136;DHT22;2586;48.710;9.202;2022-10-18T11:31:16;23.20;99.90
5136;DHT22;2586;48.710;9.202;2022-10-18T11:36:32;22.70;99.90
5136;DHT22;2586;48.710;9.202;2022-10-18T11:41:38;22.50;99.90
5136;DHT22;2586;48.710;9.202;2022-10-18T11:55:17;22.60;99.90
5136;DHT22;2586;48.710;9.202;2022-10-18T12:05:28;24.60;99.90
5136;DHT22;2586;48.710;9.202;2022-10-18T12:08:07;24.40;99.90
5136;DHT22;2586;48.710;9.202;2022-10-18T12:10:34;24.00;99.90
5136;DHT22;2586;48.710;9.202;2022-10-18T12:13:04;23.60;99.90
5136;DHT22;2586;48.710;9.202;2022-10-18T12:15:34;23.20;99.90
5136;DHT22;2586;48.710;9.202;2022-10-18T12:18:06;22.80;99.90
5136;DHT22;2586;48.710;9.202;2022-10-18T12:20:41;23.00;99.90
5136;DHT22;2586;48.710;9.202;2022-10-18T12:23:13;23.50;99.90
5136;DHT22;2586;48.710;9.202;2022-10-18T12:25:45;23.70;99.90
5136;DHT22;2586;48.710;9.202;2022-10-18T12:28:35;24.80;99.90
5136;DHT22;2586;48.710;9.202;2022-10-18T12:31:21;26.20;99.90
5136;DHT22;2586;48.710;9.202;2022-10-18T12:33:52;27.30;99.90
5136;DHT22;2586;48.710;9.202;2022-10-18T12:38:57;28.50;99.90
5136;DHT22;2586;48.710;9.202;2022-10-18T12:41:32;29.00;99.90
5136;DHT22;2586;48.710;9.202;2022-10-18T12:44:06;28.60;79.60
5136;DHT22;2586;48.710;9.202;2022-10-18T12:46:54;27.90;89.40
5136;DHT22;2586;48.710;9.202;2022-10-18T12:49:31;28.20;88.10
5136;DHT22;2586;48.710;9.202;2022-10-18T12:52:04;27.80;88.00
5136;DHT22;2586;48.710;9.202;2022-10-18T12:54:38;27.00;83.50
5136;DHT22;2586;48.710;9.202;2022-10-18T12:57:22;26.30;91.10
5136;DHT22;2586;48.710;9.202;2022-10-18T12:59:48;25.20;91.10
5136;DHT22;2586;48.710;9.202;2022-10-18T13:04:39;24.40;99.90
5136;DHT22;2586;48.710;9.202;2022-10-18T13:09:40;24.60;99.90
5136;DHT22;2586;48.710;9.202;2022-10-18T13:14:59;24.50;99.90
5136;DHT22;2586;48.710;9.202;2022-10-18T13:25:56;24.60;99.90
5136;DHT22;2586;48.710;9.202;2022-10-18T13:33:35;23.00;99.90
5136;DHT22;2586;48.710;9.202;2022-10-18T13:36:19;22.60;99.90
5136;DHT22;2586;48.710;9.202;2022-10-18T13:39:14;23.10;99.90
5136;DHT22;2586;48.710;9.202;2022-10-18T13:44:09;26.10;99.90
5136;DHT22;2586;48.710;9.202;2022-10-18T14:00:10;23.90;99.90
5136;DHT22;2586;48.710;9.202;2022-10-18T14:09:11;22.50;99.90
5136;DHT22;2586;48.710;9.202;2022-10-18T14:11:43;22.30;99.90
5136;DHT22;2586;48.710;9.202;2022-10-18T14:17:26;22.10;99.90
5136;DHT22;2586;48.710;9.202;2022-10-18T14:20:19;21.90;99.90
5136;DHT22;2586;48.710;9.202;2022-10-18T14:25:32;21.50;1.00
5136;DHT22;2586;48.710;9.202;2022-10-18T14:28:11;21.50;1.00
5136;DHT22;2586;48.710;9.202;2022-10-18T14:30:56;21.40;1.00
5136;DHT22;2586;48.710;9.202;2022-10-18T14:36:32;21.10;1.00
5136;DHT22;2586;48.710;9.202;2022-10-18T14:39:04;21.10;1.00
5136;DHT22;2586;48.710;9.202;2022-10-18T14:41:32;21.00;1.00
5136;DHT22;2586;48.710;9.202;2022-10-18T14:46:46;20.80;1.80
5136;DHT22;2586;48.710;9.202;2022-10-18T14:49:13;20.80;99.90
5136;DHT22;2586;48.710;9.202;2022-10-18T14:51:41;20.80;99.90
5136;DHT22;2586;48.710;9.202;2022-10-18T14:54:17;20.80;99.90
5136;DHT22;2586;48.710;9.202;2022-10-18T14:56:43;20.80;99.90
5136;DHT22;2586;48.710;9.202;2022-10-18T15:02:16;20.90;99.90
5136;DHT22;2586;48.710;9.202;2022-10-18T15:04:45;20.90;1.00
5136;DHT22;2586;48.710;9.202;2022-10-18T15:07:16;20.90;1.00
5136;DHT22;2586;48.710;9.202;2022-10-18T15:09:42;21.00;99.90
5136;DHT22;2586;48.710;9.202;2022-10-18T15:12:12;21.50;99.90
5136;DHT22;2586;48.710;9.202;2022-10-18T15:14:39;22.20;1.00
5136;DHT22;2586;48.710;9.202;2022-10-18T15:17:20;22.50;1.00
5136;DHT22;2586;48.710;9.202;2022-10-18T15:19:56;22.60;99.90
5136;DHT22;2586;48.710;9.202;2022-10-18T15:22:24;22.20;1.00
5136;DHT22;2586;48.710;9.202;2022-10-18T15:27:39;22.90;1.00
5136;DHT22;2586;48.710;9.202;2022-10-18T15:30:36;23.70;99.90
5136;DHT22;2586;48.710;9.202;2022-10-18T15:33:02;22.70;99.90
5136;DHT22;2586;48.710;9.202;2022-10-18T15:35:33;21.80;1.00
5136;DHT22;2586;48.710;9.202;2022-10-18T15:38:07;21.20;99.90
5136;DHT22;2586;48.710;9.202;2022-10-18T15:40:39;20.80;99.90
5136;DHT22;2586;48.710;9.202;2022-10-18T15:45:51;20.20;1.00
5136;DHT22;2586;48.710;9.202;2022-10-18T15:48:24;20.00;99.90
5136;DHT22;2586;48.710;9.202;2022-10-18T15:50:53;19.80;99.90
5136;DHT22;2586;48.710;9.202;2022-10-18T15:55:54;19.60;1.00
5136;DHT22;2586;48.710;9.202;2022-10-18T16:00:59;19.60;1.00
5136;DHT22;2586;48.710;9.202;2022-10-18T16:03:25;19.50;1.00
5136;DHT22;2586;48.710;9.202;2022-10-18T16:05:55;19.50;1.00
5136;DHT22;2586;48.710;9.202;2022-10-18T16:08:25;19.40;99.90
5136;DHT22;2586;48.710;9.202;2022-10-18T16:10:53;19.40;99.90
5136;DHT22;2586;48.710;9.202;2022-10-18T16:13:18;19.30;99.90
5136;DHT22;2586;48.710;9.202;2022-10-18T16:15:44;19.20;99.90
5136;DHT22;2586;48.710;9.202;2022-10-18T16:18:16;19.20;99.90
5136;DHT22;2586;48.710;9.202;2022-10-18T16:20:42;19.10;99.90
5136;DHT22;2586;48.710;9.202;2022-10-18T16:23:20;19.00;1.00
5136;DHT22;2586;48.710;9.202;2022-10-18T16:25:46;19.00;1.00
5136;DHT22;2586;48.710;9.202;2022-10-18T16:28:13;18.90;1.00
5136;DHT22;2586;48.710;9.202;2022-10-18T16:30:41;18.90;1.00
5136;DHT22;2586;48.710;9.202;2022-10-18T16:33:07;18.80;1.00
5136;DHT22;2586;48.710;9.202;2022-10-18T16:35:33;18.80;16.10
5136;DHT22;2586;48.710;9.202;2022-10-18T16:38:00;18.70;2.50
5136;DHT22;2586;48.710;9.202;2022-10-18T16:40:26;18.70;1.00
5136;DHT22;2586;48.710;9.202;2022-10-18T16:42:51;18.70;9.80
5136;DHT22;2586;48.710;9.202;2022-10-18T16:45:17;18.60;88.00
5136;DHT22;2586;48.710;9.202;2022-10-18T16:47:43;18.50;99.90
5136;DHT22;2586;48.710;9.202;2022-10-18T16:50:16;18.50;99.90
5136;DHT22;2586;48.710;9.202;2022-10-18T16:52:42;18.50;99.90
5136;DHT22;2586;48.710;9.202;2022-10-18T16:55:08;18.40;99.90
5136;DHT22;2586;48.710;9.202;2022-10-18T16:57:41;18.30;1.00
5136;DHT22;2586;48.710;9.202;2022-10-18T17:00:15;18.20;1.00
5136;DHT22;2586;48.710;9.202;2022-10-18T17:02:41;18.20;1.00
5136;DHT22;2586;48.710;9.202;2022-10-18T17:05:07;18.10;94.20
5136;DHT22;2586;48.710;9.202;2022-10-18T17:07:32;18.10;99.90
5136;DHT22;2586;48.710;9.202;2022-10-18T17:09:58;18.10;99.90
5136;DHT22;2586;48.710;9.202;2022-10-18T17:12:23;18.10;99.90
5136;DHT22;2586;48.710;9.202;2022-10-18T17:14:49;18.00;99.90
5136;DHT22;2586;48.710;9.202;2022-10-18T17:17:14;18.00;99.90
5136;DHT22;2586;48.710;9.202;2022-10-18T17:19:40;18.00;99.90
5136;DHT22;2586;48.710;9.202;2022-10-18T17:22:05;17.90;99.90
5136;DHT22;2586;48.710;9.202;2022-10-18T17:24:31;17.90;1.00
5136;DHT22;2586;48.710;9.202;2022-10-18T17:26:57;17.90;1.00
5136;DHT22;2586;48.710;9.202;2022-10-18T17:29:22;17.90;1.00
5136;DHT22;2586;48.710;9.202;2022-10-18T17:31:48;17.80;1.00
5136;DHT22;2586;48.710;9.202;2022-10-18T17:34:13;17.80;1.00
5136;DHT22;2586;48.710;9.202;2022-10-18T17:36:44;17.80;99.90
5136;DHT22;2586;48.710;9.202;2022-10-18T17:39:10;17.80;99.90
5136;DHT22;2586;48.710;9.202;2022-10-18T17:41:36;17.70;99.90
5136;DHT22;2586;48.710;9.202;2022-10-18T17:44:03;17.70;99.90
5136;DHT22;2586;48.710;9.202;2022-10-18T17:46:28;17.60;99.90
5136;DHT22;2586;48.710;9.202;2022-10-18T17:48:54;17.60;1.00
5136;DHT22;2586;48.710;9.202;2022-10-18T17:51:20;17.50;1.00
5136;DHT22;2586;48.710;9.202;2022-10-18T17:53:45;17.50;1.00
5136;DHT22;2586;48.710;9.202;2022-10-18T17:56:12;17.50;28.90
5136;DHT22;2586;48.710;9.202;2022-10-18T17:58:38;17.50;99.90
5136;DHT22;2586;48.710;9.202;2022-10-18T18:01:12;17.40;99.90
5136;DHT22;2586;48.710;9.202;2022-10-18T18:03:39;17.40;99.90
5136;DHT22;2586;48.710;9.202;2022-10-18T18:06:19;17.40;99.90
5136;DHT22;2586;48.710;9.202;2022-10-18T18:08:45;17.40;99.90
5136;DHT22;2586;48.710;9.202;2022-10-18T18:11:11;17.40;99.90
5136;DHT22;2586;48.710;9.202;2022-10-18T18:13:37;17.30;99.90
5136;DHT22;2586;48.710;9.202;2022-10-18T18:16:12;17.30;1.00
5136;DHT22;2586;48.710;9.202;2022-10-18T18:18:38;17.30;1.00
5136;DHT22;2586;48.710;9.202;2022-10-18T18:21:03;17.30;1.00
5136;DHT22;2586;48.710;9.202;2022-10-18T18:23:29;17.30;1.00
5136;DHT22;2586;48.710;9.202;2022-10-18T18:25:58;17.30;1.00
5136;DHT22;2586;48.710;9.202;2022-10-18T18:28:24;17.30;99.90
5136;DHT22;2586;48.710;9.202;2022-10-18T18:30:49;17.30;1.00
5136;DHT22;2586;48.710;9.202;2022-10-18T18:33:15;17.40;1.00
5136;DHT22;2586;48.710;9.202;2022-10-18T18:35:40;17.30;94.10
5136;DHT22;2586;48.710;9.202;2022-10-18T18:38:06;17.20;5.90
5136;DHT22;2586;48.710;9.202;2022-10-18T18:40:32;17.10;99.90
5136;DHT22;2586;48.710;9.202;2022-10-18T18:42:57;17.00;99.90
5136;DHT22;2586;48.710;9.202;2022-10-18T18:45:23;16.90;1.00
5136;DHT22;2586;48.710;9.202;2022-10-18T18:47:48;16.90;99.90
5136;DHT22;2586;48.710;9.202;2022-10-18T18:50:14;16.80;1.00
5136;DHT22;2586;48.710;9.202;2022-10-18T18:52:39;16.70;65.00
5136;DHT22;2586;48.710;9.202;2022-10-18T18:55:05;16.60;55.80
5136;DHT22;2586;48.710;9.202;2022-10-18T18:57:31;16.40;1.00